American Freedom — WDC3284 — position and weather

sailwx.info

Track history (hours):
 
Tides and Currents Weather Stations Pressure Air Temp Water Temp Dewpoint Dewpoint Depression Visibility Wind Speed Wind Dir Waves Ship Positions

American Freedom

Owner: LeBeouf Bros. Towing, L.L.C., Houma, LA. More information available from US FCC via Universal Licensing System and Coast Guard Vessel Documentation Center.

Last reported at 2018-Jul-20 07:57 UTC. Time now 2018-Jul-20 08:02 UTC.
Position N 29°42' W 095°03'.

Length 24 m.

Type: Tug. MMSI: 367005260.

Date/timePositionNaut miles runAvg speedWind from/ knotsBaromVisibWave heightAir tempDewpointWater temp
2018-Jul-20 07:57N 29°42' W 095°03'0 0.0
2018-Jul-20 07:30N 29°42' W 095°03'1 2.8
2018-Jul-20 07:00N 29°42' W 095°01'1 2.5
2018-Jul-20 06:30N 29°44' W 095°01'2 3.7
2018-Jul-20 06:00N 29°42' W 095°03'0 0.0
2018-Jul-20 05:29N 29°42' W 095°03'0 0.0
2018-Jul-20 05:00N 29°42' W 095°03'1 1.7
2018-Jul-20 04:30N 29°42' W 095°02'2 3.5
2018-Jul-20 04:00N 29°44' W 095°01'2 3.4
2018-Jul-20 03:30N 29°42' W 095°01'1 2.5
2018-Jul-20 02:58N 29°42' W 095°03'0 0.0
2018-Jul-20 02:30N 29°42' W 095°03'0 0.0
2018-Jul-20 02:00N 29°42' W 095°03'0 0.0
2018-Jul-19 21:38N 29°42' W 095°03'1 1.1
2018-Jul-19 20:25N 29°43' W 095°01'2 0.9
2018-Jul-19 18:42N 29°42' W 095°03'0 0.0
2018-Jul-19 18:29N 29°42' W 095°03'0 0.0
2018-Jul-19 17:49N 29°42' W 095°03'0 0.0
2018-Jul-19 17:18N 29°42' W 095°03'0 0.0
2018-Jul-19 16:59N 29°42' W 095°03'0 0.0
2018-Jul-19 15:53N 29°42' W 095°03'0 0.0
2018-Jul-19 15:25N 29°42' W 095°03'0 0.0
2018-Jul-19 15:00N 29°42' W 095°03'0 0.0
2018-Jul-19 14:25N 29°42' W 095°03'0 0.0
2018-Jul-19 13:27N 29°42' W 095°03'0 0.0
2018-Jul-19 12:59N 29°42' W 095°03'0 0.0
2018-Jul-19 12:27N 29°42' W 095°03'0 0.0
2018-Jul-19 11:57N 29°42' W 095°03'0 0.0
2018-Jul-19 11:27N 29°42' W 095°03'0 0.0
2018-Jul-19 10:57N 29°42' W 095°03'0 0.0
2018-Jul-19 10:30N 29°42' W 095°03'0 0.0
2018-Jul-19 09:59N 29°42' W 095°03'0 0.0
2018-Jul-19 09:30N 29°42' W 095°03'0 0.0
2018-Jul-19 09:00N 29°42' W 095°03'0 0.0
2018-Jul-19 08:29N 29°42' W 095°03'0 0.4
2018-Jul-19 08:00N 29°43' W 095°03'0 0.3
2018-Jul-19 07:30N 29°42' W 095°03'0 0.0
2018-Jul-19 06:54N 29°42' W 095°03'0 0.0
2018-Jul-19 06:29N 29°42' W 095°03'0 0.0
2018-Jul-19 06:00N 29°42' W 095°03'0 0.0
2018-Jul-19 05:30N 29°42' W 095°03'0 0.0
2018-Jul-19 05:00N 29°42' W 095°03'0 0.0
2018-Jul-19 04:30N 29°42' W 095°03'0 0.0
2018-Jul-19 03:56N 29°42' W 095°03'0 0.0
2018-Jul-19 03:30N 29°42' W 095°03'0 0.0
2018-Jul-19 03:00N 29°42' W 095°03'0 0.0
2018-Jul-19 02:30N 29°42' W 095°03'0 0.0
2018-Jul-19 02:01N 29°42' W 095°03'0 0.0
2018-Jul-18 17:27N 29°42' W 095°03'0 0.0
2018-Jul-18 15:40N 29°42' W 095°03'0 0.0
2018-Jul-18 15:21N 29°42' W 095°03'0 0.0
2018-Jul-18 14:15N 29°42' W 095°03'0 0.0
2018-Jul-18 13:20N 29°42' W 095°03'0 0.0
2018-Jul-18 13:00N 29°42' W 095°03'0 0.1
2018-Jul-18 12:30N 29°42' W 095°03'1 1.0
2018-Jul-18 12:00N 29°42' W 095°02'2 3.3
2018-Jul-18 11:30N 29°42' W 095°00'5 4.5
2018-Jul-18 10:30N 29°38' W 094°58'2 4.7
2018-Jul-18 10:00N 29°36' W 094°57'2 4.7
2018-Jul-18 09:30N 29°34' W 094°55'2 4.6
2018-Jul-18 09:00N 29°32' W 094°54'2 4.5
2018-Jul-18 08:30N 29°30' W 094°52'2 4.7
2018-Jul-18 08:00N 29°28' W 094°51'2 4.8
2018-Jul-18 07:30N 29°26' W 094°50'2 4.6
2018-Jul-18 07:00N 29°24' W 094°49'2 4.1
2018-Jul-18 06:30N 29°22' W 094°48'2 4.9
2018-Jul-18 06:00N 29°22' W 094°51'2 4.0
2018-Jul-18 05:30N 29°23' W 094°53'0 0.1
2018-Jul-18 05:00N 29°23' W 094°53'0 0.0
2018-Jul-18 04:30N 29°23' W 094°53'0 0.0
2018-Jul-18 04:00N 29°23' W 094°53'0 0.0
2018-Jul-18 03:27N 29°23' W 094°53'0 0.0
2018-Jul-18 03:00N 29°23' W 094°53'0 0.0
2018-Jul-18 02:30N 29°23' W 094°53'0 0.0
2018-Jul-18 01:52N 29°23' W 094°53'0 0.0
2018-Jul-17 19:37N 29°23' W 094°53'0 0.7
2018-Jul-17 19:30N 29°23' W 094°53'0 0.8
2018-Jul-17 19:00N 29°22' W 094°53'0 0.2
2018-Jul-17 18:30N 29°22' W 094°53'0 0.1
2018-Jul-17 18:00N 29°22' W 094°53'0 0.6
2018-Jul-17 17:30N 29°23' W 094°53'0 0.0
2018-Jul-17 13:50N 29°23' W 094°53'0 0.0
2018-Jul-17 13:27N 29°23' W 094°53'0 0.0
2018-Jul-17 13:00N 29°23' W 094°53'0 0.0
2018-Jul-17 12:24N 29°23' W 094°53'0 0.0
2018-Jul-17 12:00N 29°23' W 094°53'0 0.0
2018-Jul-17 11:30N 29°23' W 094°53'0 0.0
2018-Jul-17 11:00N 29°23' W 094°53'0 0.0
2018-Jul-17 10:30N 29°23' W 094°53'0 0.0
2018-Jul-17 10:00N 29°23' W 094°53'0 0.0
2018-Jul-17 09:30N 29°23' W 094°53'0 0.0
2018-Jul-17 09:00N 29°23' W 094°53'0 0.0
2018-Jul-17 08:30N 29°23' W 094°53'0 0.0
2018-Jul-17 08:00N 29°23' W 094°53'0 1.0
2018-Jul-17 07:30N 29°23' W 094°53'3 6.9
2018-Jul-17 07:00N 29°22' W 094°49'2 4.8
2018-Jul-17 06:30N 29°23' W 094°47'2 3.8
2018-Jul-17 06:00N 29°24' W 094°45'1 1.4
2018-Jul-17 05:30N 29°24' W 094°44'0 0.0
2018-Jul-17 05:00N 29°24' W 094°44'0 0.0
2018-Jul-17 04:30N 29°24' W 094°44'0 0.0
2018-Jul-17 04:00N 29°24' W 094°44'0 0.0
2018-Jul-17 03:30N 29°24' W 094°44'0 0.0
2018-Jul-17 03:00N 29°24' W 094°44'0 0.0
2018-Jul-17 02:30N 29°24' W 094°44'0 0.0
2018-Jul-17 02:00N 29°24' W 094°44'0 0.0
2018-Jul-17 01:30N 29°24' W 094°44'0 0.0
2018-Jul-17 01:00N 29°24' W 094°44'0 0.0
2018-Jul-17 00:30N 29°24' W 094°44'0 0.0
2018-Jul-16 23:30N 29°24' W 094°44'0 0.0
2018-Jul-16 23:00N 29°24' W 094°44'0 0.0
2018-Jul-16 22:28N 29°24' W 094°44'0 0.0
2018-Jul-16 22:00N 29°24' W 094°44'0 0.0
2018-Jul-16 21:29N 29°24' W 094°44'0 0.0
2018-Jul-16 20:59N 29°24' W 094°44'0 0.0
2018-Jul-16 20:30N 29°24' W 094°44'0 0.0
2018-Jul-16 19:58N 29°24' W 094°44'0 0.0
2018-Jul-16 19:27N 29°24' W 094°44'0 0.0
2018-Jul-16 18:58N 29°24' W 094°44'0 0.0
2018-Jul-16 18:28N 29°24' W 094°44'0 0.0
2018-Jul-16 17:59N 29°24' W 094°44'0 0.0
2018-Jul-16 17:28N 29°24' W 094°44'0 0.0
2018-Jul-16 16:48N 29°24' W 094°44'0 0.0
2018-Jul-16 16:30N 29°24' W 094°44'0 0.0
2018-Jul-16 15:59N 29°24' W 094°44'0 0.0
2018-Jul-16 15:29N 29°24' W 094°44'0 0.0
2018-Jul-16 14:50N 29°24' W 094°44'0 0.0
2018-Jul-16 14:29N 29°24' W 094°44'0 0.0
2018-Jul-16 14:00N 29°24' W 094°44'0 0.0
2018-Jul-16 13:27N 29°24' W 094°44'0 0.0
2018-Jul-16 12:58N 29°24' W 094°44'0 0.0
2018-Jul-16 12:21N 29°24' W 094°44'0 0.0
2018-Jul-16 11:59N 29°24' W 094°44'0 0.0
2018-Jul-16 11:28N 29°24' W 094°44'0 0.0
2018-Jul-16 10:53N 29°24' W 094°44'0 0.0
2018-Jul-16 10:31N 29°24' W 094°44'0 0.0
2018-Jul-16 10:00N 29°24' W 094°44'0 0.0
2018-Jul-16 09:29N 29°24' W 094°44'0 0.0
2018-Jul-16 08:59N 29°24' W 094°44'0 0.0
2018-Jul-16 08:30N 29°24' W 094°44'0 0.0
2018-Jul-16 07:58N 29°24' W 094°44'0 0.0
2018-Jul-16 07:30N 29°24' W 094°44'0 0.0
2018-Jul-16 07:00N 29°24' W 094°44'1 2.2
2018-Jul-16 06:30N 29°24' W 094°45'2 4.6
2018-Jul-16 06:00N 29°22' W 094°47'1 2.1
2018-Jul-16 05:30N 29°22' W 094°48'6 9.0
2018-Jul-16 04:50N 29°28' W 094°51'3 8.4
2018-Jul-16 04:30N 29°30' W 094°53'3 6.6
2018-Jul-16 04:00N 29°33' W 094°55'4 7.6
2018-Jul-16 03:30N 29°36' W 094°57'4 7.6
2018-Jul-16 03:00N 29°40' W 094°59'3 6.5
2018-Jul-16 02:30N 29°42' W 095°01'1 2.7
2018-Jul-16 01:58N 29°42' W 095°03'1 1.9
2018-Jul-16 01:20N 29°42' W 095°01'1 0.0
2018-Jul-14 15:30N 29°44' W 095°01'2 3.5
2018-Jul-14 15:00N 29°42' W 095°03'0 0.0
2018-Jul-14 14:07N 29°42' W 095°03'0 0.0
2018-Jul-14 13:25N 29°42' W 095°03'0 0.0
2018-Jul-14 12:35N 29°42' W 095°03'0 1.2
2018-Jul-14 12:27N 29°43' W 095°03'2 2.7
2018-Jul-14 11:51N 29°44' W 095°01'0 0.6
2018-Jul-14 11:30N 29°44' W 095°01'0 0.0
2018-Jul-14 10:58N 29°44' W 095°01'0 0.0
2018-Jul-13 05:50N 29°44' W 095°01'0 0.0
2018-Jul-13 05:28N 29°44' W 095°01'1 2.3
2018-Jul-13 04:59N 29°43' W 095°01'0 0.4
2018-Jul-13 04:29N 29°43' W 095°01'1 1.8
2018-Jul-13 03:58N 29°42' W 095°00'2 5.4
2018-Jul-13 03:30N 29°40' W 094°59'3 6.5
2018-Jul-13 03:00N 29°37' W 094°57'4 6.5
2018-Jul-13 02:19N 29°33' W 094°55'6 6.1
2018-Jul-13 01:21N 29°28' W 094°51'2 6.0
2018-Jul-13 00:58N 29°26' W 094°50'3 5.8
2018-Jul-13 00:29N 29°24' W 094°49'2 3.9
2018-Jul-12 23:59N 29°22' W 094°47'12 5.4
2018-Jul-12 21:48N 29°29' W 094°36'2 5.2
2018-Jul-12 21:24N 29°30' W 094°34'7 5.1
2018-Jul-12 20:05N 29°34' W 094°27'1 5.6
2018-Jul-12 19:57N 29°34' W 094°26'2 3.8
2018-Jul-12 19:19N 29°36' W 094°25'1 4.8
2018-Jul-12 19:00N 29°36' W 094°23'3 5.2
2018-Jul-12 18:30N 29°37' W 094°20'3 5.2
2018-Jul-12 18:00N 29°38' W 094°18'3 5.1
2018-Jul-12 17:30N 29°39' W 094°15'3 5.1
2018-Jul-12 17:00N 29°41' W 094°13'2 4.7
2018-Jul-12 16:30N 29°41' W 094°10'2 4.4
2018-Jul-12 16:00N 29°42' W 094°08'2 4.8
2018-Jul-12 15:30N 29°44' W 094°06'3 5.1
2018-Jul-12 15:00N 29°46' W 094°03'3 5.1
2018-Jul-12 14:30N 29°47' W 094°01'2 4.9
2018-Jul-12 14:00N 29°49' W 093°59'2 4.4
2018-Jul-12 13:30N 29°50' W 093°57'3 5.6
2018-Jul-12 13:00N 29°53' W 093°55'3 5.5
2018-Jul-12 12:30N 29°55' W 093°53'3 5.5
2018-Jul-12 12:00N 29°57' W 093°52'2 4.9
2018-Jul-12 11:30N 29°59' W 093°49'3 6.1
2018-Jul-12 11:00N 29°60' W 093°46'3 5.6
2018-Jul-12 10:30N 30°02' W 093°44'3 5.2
2018-Jul-12 10:00N 30°04' W 093°42'3 5.5
2018-Jul-12 09:30N 30°04' W 093°38'3 5.2
2018-Jul-12 09:00N 30°04' W 093°36'2 4.3
2018-Jul-12 08:30N 30°04' W 093°33'1 2.6
2018-Jul-12 08:00N 30°04' W 093°32'0 0.8
2018-Jul-12 07:30N 30°04' W 093°31'2 3.7
2018-Jul-12 06:59N 30°04' W 093°29'2 3.6
2018-Jul-12 06:30N 30°04' W 093°27'2 3.5
2018-Jul-12 06:00N 30°04' W 093°25'2 3.4
2018-Jul-12 05:30N 30°04' W 093°23'1 2.4
2018-Jul-12 05:00N 30°04' W 093°22'1 1.7
2018-Jul-12 04:30N 30°04' W 093°21'1 2.9
2018-Jul-12 04:00N 30°05' W 093°20'2 3.0
2018-Jul-12 03:30N 30°06' W 093°18'1 2.2
2018-Jul-12 03:00N 30°05' W 093°17'1 2.5
2018-Jul-12 02:30N 30°04' W 093°16'0 0.0
2018-Jul-12 02:00N 30°04' W 093°16'0 0.0
2018-Jul-12 01:30N 30°04' W 093°16'0 0.1
2018-Jul-12 01:00N 30°04' W 093°16'0 0.3
2018-Jul-12 00:30N 30°04' W 093°16'0 0.7
2018-Jul-12 00:00N 30°04' W 093°16'1 2.5
2018-Jul-11 23:30N 30°02' W 093°16'1 1.4
2018-Jul-11 22:58N 30°02' W 093°15'0 0.0
2018-Jul-11 22:30N 30°02' W 093°15'0 0.0
2018-Jul-11 22:00N 30°02' W 093°15'0 0.0
2018-Jul-11 21:30N 30°02' W 093°15'0 0.0
2018-Jul-11 21:00N 30°02' W 093°15'0 0.0
2018-Jul-11 20:30N 30°02' W 093°15'0 0.0
2018-Jul-11 20:00N 30°02' W 093°15'0 0.0
2018-Jul-11 19:30N 30°02' W 093°15'0 0.0
2018-Jul-11 19:00N 30°02' W 093°15'0 0.0
2018-Jul-11 18:30N 30°02' W 093°15'0 0.0
2018-Jul-11 18:00N 30°02' W 093°15'0 0.0
2018-Jul-11 17:30N 30°02' W 093°15'0 0.0
2018-Jul-11 17:00N 30°02' W 093°15'0 0.0
2018-Jul-11 16:30N 30°02' W 093°15'0 0.0
2018-Jul-11 16:00N 30°02' W 093°15'0 0.0
2018-Jul-11 15:30N 30°02' W 093°15'0 0.1
2018-Jul-11 15:00N 30°02' W 093°15'1 2.7
2018-Jul-11 14:30N 30°01' W 093°14'1 2.4
2018-Jul-11 14:00N 29°60' W 093°13'0 0.0
2018-Jul-11 13:30N 29°60' W 093°13'0 0.0
2018-Jul-11 13:00N 29°60' W 093°13'0 0.0
2018-Jul-11 12:30N 29°60' W 093°13'0 0.0
2018-Jul-11 12:00N 29°60' W 093°13'0 0.0
2018-Jul-11 11:30N 29°60' W 093°13'0 0.0
2018-Jul-11 11:00N 29°60' W 093°13'0 0.0
2018-Jul-11 10:30N 29°60' W 093°13'0 0.0
2018-Jul-11 10:00N 29°60' W 093°13'0 0.0
2018-Jul-11 09:30N 29°60' W 093°13'0 0.0
2018-Jul-11 09:00N 29°60' W 093°13'0 0.0
2018-Jul-11 08:30N 29°60' W 093°13'0 0.0
2018-Jul-11 08:00N 29°60' W 093°13'0 0.0
2018-Jul-11 07:30N 29°60' W 093°13'0 0.0
2018-Jul-11 07:00N 29°60' W 093°13'0 0.0
2018-Jul-11 06:30N 29°60' W 093°13'0 0.0
2018-Jul-11 06:00N 29°60' W 093°13'0 0.0
2018-Jul-11 05:30N 29°60' W 093°13'2 3.2
2018-Jul-11 05:00N 29°59' W 093°12'1 1.7
2018-Jul-11 04:30N 29°58' W 093°11'0 0.1
2018-Jul-11 04:00N 29°58' W 093°11'0 0.0
2018-Jul-11 03:30N 29°58' W 093°11'0 0.0
2018-Jul-11 03:00N 29°58' W 093°11'0 0.0
2018-Jul-11 02:30N 29°58' W 093°11'0 0.0
2018-Jul-11 02:00N 29°58' W 093°11'0 0.0
2018-Jul-11 01:30N 29°58' W 093°11'0 0.0
2018-Jul-11 01:00N 29°58' W 093°11'0 0.0
2018-Jul-11 00:30N 29°58' W 093°11'0 0.0
2018-Jul-11 00:00N 29°58' W 093°11'0 0.0
2018-Jul-10 23:30N 29°58' W 093°11'0 0.0
2018-Jul-10 23:00N 29°58' W 093°11'0 0.0
2018-Jul-10 22:30N 29°58' W 093°11'0 0.0
2018-Jul-10 22:00N 29°58' W 093°11'0 0.0
2018-Jul-10 21:30N 29°58' W 093°11'0 0.0
2018-Jul-10 21:00N 29°58' W 093°11'0 0.0
2018-Jul-10 20:30N 29°58' W 093°11'0 0.0
2018-Jul-10 20:00N 29°58' W 093°11'0 0.0
2018-Jul-10 19:30N 29°58' W 093°11'0 0.0
2018-Jul-10 19:00N 29°58' W 093°11'0 0.0
2018-Jul-10 18:30N 29°58' W 093°11'0 0.0
2018-Jul-10 18:00N 29°58' W 093°11'0 0.0
2018-Jul-10 17:30N 29°58' W 093°11'0 0.0
2018-Jul-10 17:00N 29°58' W 093°11'0 0.0
2018-Jul-10 16:30N 29°58' W 093°11'0 0.0
2018-Jul-10 16:00N 29°58' W 093°11'0 0.0
2018-Jul-10 15:30N 29°58' W 093°11'0 0.0
2018-Jul-10 15:00N 29°58' W 093°11'0 0.0
2018-Jul-10 14:30N 29°58' W 093°11'0 0.0
2018-Jul-10 14:00N 29°58' W 093°11'0 0.0
2018-Jul-10 13:30N 29°58' W 093°11'0 0.0
2018-Jul-10 13:00N 29°58' W 093°11'0 0.0
2018-Jul-10 12:30N 29°58' W 093°11'0 0.0
2018-Jul-10 12:00N 29°58' W 093°11'1 1.3
2018-Jul-10 11:30N 29°57' W 093°11'0 0.2
2018-Jul-10 11:00N 29°57' W 093°11'1 1.4
2018-Jul-10 10:30N 29°57' W 093°10'3 4.1
2018-Jul-10 09:50N 29°56' W 093°07'  
Track history (hours):
 
Tides and Currents Weather Stations Pressure Air Temp Water Temp Dewpoint Dewpoint Depression Visibility Wind Speed Wind Dir Waves Ship Positions

American Freedom

Owner: LeBeouf Bros. Towing, L.L.C., Houma, LA. More information available from US FCC via Universal Licensing System and Coast Guard Vessel Documentation Center.

Last reported at 2018-Jul-20 07:57 UTC. Time now 2018-Jul-20 08:02 UTC.
Position N 29°42' W 095°03'.

Length 24 m.

Type: Tug. MMSI: 367005260.

Date/timePositionNaut miles runAvg speedWind from/ knotsBaromVisibWave heightAir tempDewpointWater temp
2018-Jul-20 07:57N 29°42' W 095°03'0 0.0
2018-Jul-20 07:30N 29°42' W 095°03'1 2.8
2018-Jul-20 07:00N 29°42' W 095°01'1 2.5
2018-Jul-20 06:30N 29°44' W 095°01'2 3.7
2018-Jul-20 06:00N 29°42' W 095°03'0 0.0
2018-Jul-20 05:29N 29°42' W 095°03'0 0.0
2018-Jul-20 05:00N 29°42' W 095°03'1 1.7
2018-Jul-20 04:30N 29°42' W 095°02'2 3.5
2018-Jul-20 04:00N 29°44' W 095°01'2 3.4
2018-Jul-20 03:30N 29°42' W 095°01'1 2.5
2018-Jul-20 02:58N 29°42' W 095°03'0 0.0
2018-Jul-20 02:30N 29°42' W 095°03'0 0.0
2018-Jul-20 02:00N 29°42' W 095°03'0 0.0
2018-Jul-19 21:38N 29°42' W 095°03'1 1.1
2018-Jul-19 20:25N 29°43' W 095°01'2 0.9
2018-Jul-19 18:42N 29°42' W 095°03'0 0.0
2018-Jul-19 18:29N 29°42' W 095°03'0 0.0
2018-Jul-19 17:49N 29°42' W 095°03'0 0.0
2018-Jul-19 17:18N 29°42' W 095°03'0 0.0
2018-Jul-19 16:59N 29°42' W 095°03'0 0.0
2018-Jul-19 15:53N 29°42' W 095°03'0 0.0
2018-Jul-19 15:25N 29°42' W 095°03'0 0.0
2018-Jul-19 15:00N 29°42' W 095°03'0 0.0
2018-Jul-19 14:25N 29°42' W 095°03'0 0.0
2018-Jul-19 13:27N 29°42' W 095°03'0 0.0
2018-Jul-19 12:59N 29°42' W 095°03'0 0.0
2018-Jul-19 12:27N 29°42' W 095°03'0 0.0
2018-Jul-19 11:57N 29°42' W 095°03'0 0.0
2018-Jul-19 11:27N 29°42' W 095°03'0 0.0
2018-Jul-19 10:57N 29°42' W 095°03'0 0.0
2018-Jul-19 10:30N 29°42' W 095°03'0 0.0
2018-Jul-19 09:59N 29°42' W 095°03'0 0.0
2018-Jul-19 09:30N 29°42' W 095°03'0 0.0
2018-Jul-19 09:00N 29°42' W 095°03'0 0.0
2018-Jul-19 08:29N 29°42' W 095°03'0 0.4
2018-Jul-19 08:00N 29°43' W 095°03'0 0.3
2018-Jul-19 07:30N 29°42' W 095°03'0 0.0
2018-Jul-19 06:54N 29°42' W 095°03'0 0.0
2018-Jul-19 06:29N 29°42' W 095°03'0 0.0
2018-Jul-19 06:00N 29°42' W 095°03'0 0.0
2018-Jul-19 05:30N 29°42' W 095°03'0 0.0
2018-Jul-19 05:00N 29°42' W 095°03'0 0.0
2018-Jul-19 04:30N 29°42' W 095°03'0 0.0
2018-Jul-19 03:56N 29°42' W 095°03'0 0.0
2018-Jul-19 03:30N 29°42' W 095°03'0 0.0
2018-Jul-19 03:00N 29°42' W 095°03'0 0.0
2018-Jul-19 02:30N 29°42' W 095°03'0 0.0
2018-Jul-19 02:01N 29°42' W 095°03'0 0.0
2018-Jul-18 17:27N 29°42' W 095°03'0 0.0
2018-Jul-18 15:40N 29°42' W 095°03'0 0.0
2018-Jul-18 15:21N 29°42' W 095°03'0 0.0
2018-Jul-18 14:15N 29°42' W 095°03'0 0.0
2018-Jul-18 13:20N 29°42' W 095°03'0 0.0
2018-Jul-18 13:00N 29°42' W 095°03'0 0.1
2018-Jul-18 12:30N 29°42' W 095°03'1 1.0
2018-Jul-18 12:00N 29°42' W 095°02'2 3.3
2018-Jul-18 11:30N 29°42' W 095°00'5 4.5
2018-Jul-18 10:30N 29°38' W 094°58'2 4.7
2018-Jul-18 10:00N 29°36' W 094°57'2 4.7
2018-Jul-18 09:30N 29°34' W 094°55'2 4.6
2018-Jul-18 09:00N 29°32' W 094°54'2 4.5
2018-Jul-18 08:30N 29°30' W 094°52'2 4.7
2018-Jul-18 08:00N 29°28' W 094°51'2 4.8
2018-Jul-18 07:30N 29°26' W 094°50'2 4.6
2018-Jul-18 07:00N 29°24' W 094°49'2 4.1
2018-Jul-18 06:30N 29°22' W 094°48'2 4.9
2018-Jul-18 06:00N 29°22' W 094°51'2 4.0
2018-Jul-18 05:30N 29°23' W 094°53'0 0.1
2018-Jul-18 05:00N 29°23' W 094°53'0 0.0
2018-Jul-18 04:30N 29°23' W 094°53'0 0.0
2018-Jul-18 04:00N 29°23' W 094°53'0 0.0
2018-Jul-18 03:27N 29°23' W 094°53'0 0.0
2018-Jul-18 03:00N 29°23' W 094°53'0 0.0
2018-Jul-18 02:30N 29°23' W 094°53'0 0.0
2018-Jul-18 01:52N 29°23' W 094°53'0 0.0
2018-Jul-17 19:37N 29°23' W 094°53'0 0.7
2018-Jul-17 19:30N 29°23' W 094°53'0 0.8
2018-Jul-17 19:00N 29°22' W 094°53'0 0.2
2018-Jul-17 18:30N 29°22' W 094°53'0 0.1
2018-Jul-17 18:00N 29°22' W 094°53'0 0.6
2018-Jul-17 17:30N 29°23' W 094°53'0 0.0
2018-Jul-17 13:50N 29°23' W 094°53'0 0.0
2018-Jul-17 13:27N 29°23' W 094°53'0 0.0
2018-Jul-17 13:00N 29°23' W 094°53'0 0.0
2018-Jul-17 12:24N 29°23' W 094°53'0 0.0
2018-Jul-17 12:00N 29°23' W 094°53'0 0.0
2018-Jul-17 11:30N 29°23' W 094°53'0 0.0
2018-Jul-17 11:00N 29°23' W 094°53'0 0.0
2018-Jul-17 10:30N 29°23' W 094°53'0 0.0
2018-Jul-17 10:00N 29°23' W 094°53'0 0.0
2018-Jul-17 09:30N 29°23' W 094°53'0 0.0
2018-Jul-17 09:00N 29°23' W 094°53'0 0.0
2018-Jul-17 08:30N 29°23' W 094°53'0 0.0
2018-Jul-17 08:00N 29°23' W 094°53'0 1.0
2018-Jul-17 07:30N 29°23' W 094°53'3 6.9
2018-Jul-17 07:00N 29°22' W 094°49'2 4.8
2018-Jul-17 06:30N 29°23' W 094°47'2 3.8
2018-Jul-17 06:00N 29°24' W 094°45'1 1.4
2018-Jul-17 05:30N 29°24' W 094°44'0 0.0
2018-Jul-17 05:00N 29°24' W 094°44'0 0.0
2018-Jul-17 04:30N 29°24' W 094°44'0 0.0
2018-Jul-17 04:00N 29°24' W 094°44'0 0.0
2018-Jul-17 03:30N 29°24' W 094°44'0 0.0
2018-Jul-17 03:00N 29°24' W 094°44'0 0.0
2018-Jul-17 02:30N 29°24' W 094°44'0 0.0
2018-Jul-17 02:00N 29°24' W 094°44'0 0.0
2018-Jul-17 01:30N 29°24' W 094°44'0 0.0
2018-Jul-17 01:00N 29°24' W 094°44'0 0.0
2018-Jul-17 00:30N 29°24' W 094°44'0 0.0
2018-Jul-16 23:30N 29°24' W 094°44'0 0.0
2018-Jul-16 23:00N 29°24' W 094°44'0 0.0
2018-Jul-16 22:28N 29°24' W 094°44'0 0.0
2018-Jul-16 22:00N 29°24' W 094°44'0 0.0
2018-Jul-16 21:29N 29°24' W 094°44'0 0.0
2018-Jul-16 20:59N 29°24' W 094°44'0 0.0
2018-Jul-16 20:30N 29°24' W 094°44'0 0.0
2018-Jul-16 19:58N 29°24' W 094°44'0 0.0
2018-Jul-16 19:27N 29°24' W 094°44'0 0.0
2018-Jul-16 18:58N 29°24' W 094°44'0 0.0
2018-Jul-16 18:28N 29°24' W 094°44'0 0.0
2018-Jul-16 17:59N 29°24' W 094°44'0 0.0
2018-Jul-16 17:28N 29°24' W 094°44'0 0.0
2018-Jul-16 16:48N 29°24' W 094°44'0 0.0
2018-Jul-16 16:30N 29°24' W 094°44'0 0.0
2018-Jul-16 15:59N 29°24' W 094°44'0 0.0
2018-Jul-16 15:29N 29°24' W 094°44'0 0.0
2018-Jul-16 14:50N 29°24' W 094°44'0 0.0
2018-Jul-16 14:29N 29°24' W 094°44'0 0.0
2018-Jul-16 14:00N 29°24' W 094°44'0 0.0
2018-Jul-16 13:27N 29°24' W 094°44'0 0.0
2018-Jul-16 12:58N 29°24' W 094°44'0 0.0
2018-Jul-16 12:21N 29°24' W 094°44'0 0.0
2018-Jul-16 11:59N 29°24' W 094°44'0 0.0
2018-Jul-16 11:28N 29°24' W 094°44'0 0.0
2018-Jul-16 10:53N 29°24' W 094°44'0 0.0
2018-Jul-16 10:31N 29°24' W 094°44'0 0.0
2018-Jul-16 10:00N 29°24' W 094°44'0 0.0
2018-Jul-16 09:29N 29°24' W 094°44'0 0.0
2018-Jul-16 08:59N 29°24' W 094°44'0 0.0
2018-Jul-16 08:30N 29°24' W 094°44'0 0.0
2018-Jul-16 07:58N 29°24' W 094°44'0 0.0
2018-Jul-16 07:30N 29°24' W 094°44'0 0.0
2018-Jul-16 07:00N 29°24' W 094°44'1 2.2
2018-Jul-16 06:30N 29°24' W 094°45'2 4.6
2018-Jul-16 06:00N 29°22' W 094°47'1 2.1
2018-Jul-16 05:30N 29°22' W 094°48'6 9.0
2018-Jul-16 04:50N 29°28' W 094°51'3 8.4
2018-Jul-16 04:30N 29°30' W 094°53'3 6.6
2018-Jul-16 04:00N 29°33' W 094°55'4 7.6
2018-Jul-16 03:30N 29°36' W 094°57'4 7.6
2018-Jul-16 03:00N 29°40' W 094°59'3 6.5
2018-Jul-16 02:30N 29°42' W 095°01'1 2.7
2018-Jul-16 01:58N 29°42' W 095°03'1 1.9
2018-Jul-16 01:20N 29°42' W 095°01'1 0.0
2018-Jul-14 15:30N 29°44' W 095°01'2 3.5
2018-Jul-14 15:00N 29°42' W 095°03'0 0.0
2018-Jul-14 14:07N 29°42' W 095°03'0 0.0
2018-Jul-14 13:25N 29°42' W 095°03'0 0.0
2018-Jul-14 12:35N 29°42' W 095°03'0 1.2
2018-Jul-14 12:27N 29°43' W 095°03'2 2.7
2018-Jul-14 11:51N 29°44' W 095°01'0 0.6
2018-Jul-14 11:30N 29°44' W 095°01'0 0.0
2018-Jul-14 10:58N 29°44' W 095°01'0 0.0
2018-Jul-13 05:50N 29°44' W 095°01'0 0.0
2018-Jul-13 05:28N 29°44' W 095°01'1 2.3
2018-Jul-13 04:59N 29°43' W 095°01'0 0.4
2018-Jul-13 04:29N 29°43' W 095°01'1 1.8
2018-Jul-13 03:58N 29°42' W 095°00'2 5.4
2018-Jul-13 03:30N 29°40' W 094°59'3 6.5
2018-Jul-13 03:00N 29°37' W 094°57'4 6.5
2018-Jul-13 02:19N 29°33' W 094°55'6 6.1
2018-Jul-13 01:21N 29°28' W 094°51'2 6.0
2018-Jul-13 00:58N 29°26' W 094°50'3 5.8
2018-Jul-13 00:29N 29°24' W 094°49'2 3.9
2018-Jul-12 23:59N 29°22' W 094°47'12 5.4
2018-Jul-12 21:48N 29°29' W 094°36'2 5.2
2018-Jul-12 21:24N 29°30' W 094°34'7 5.1
2018-Jul-12 20:05N 29°34' W 094°27'1 5.6
2018-Jul-12 19:57N 29°34' W 094°26'2 3.8
2018-Jul-12 19:19N 29°36' W 094°25'1 4.8
2018-Jul-12 19:00N 29°36' W 094°23'3 5.2
2018-Jul-12 18:30N 29°37' W 094°20'3 5.2
2018-Jul-12 18:00N 29°38' W 094°18'3 5.1
2018-Jul-12 17:30N 29°39' W 094°15'3 5.1
2018-Jul-12 17:00N 29°41' W 094°13'2 4.7
2018-Jul-12 16:30N 29°41' W 094°10'2 4.4
2018-Jul-12 16:00N 29°42' W 094°08'2 4.8
2018-Jul-12 15:30N 29°44' W 094°06'3 5.1
2018-Jul-12 15:00N 29°46' W 094°03'3 5.1
2018-Jul-12 14:30N 29°47' W 094°01'2 4.9
2018-Jul-12 14:00N 29°49' W 093°59'2 4.4
2018-Jul-12 13:30N 29°50' W 093°57'3 5.6
2018-Jul-12 13:00N 29°53' W 093°55'3 5.5
2018-Jul-12 12:30N 29°55' W 093°53'3 5.5
2018-Jul-12 12:00N 29°57' W 093°52'2 4.9
2018-Jul-12 11:30N 29°59' W 093°49'3 6.1
2018-Jul-12 11:00N 29°60' W 093°46'3 5.6
2018-Jul-12 10:30N 30°02' W 093°44'3 5.2
2018-Jul-12 10:00N 30°04' W 093°42'3 5.5
2018-Jul-12 09:30N 30°04' W 093°38'3 5.2
2018-Jul-12 09:00N 30°04' W 093°36'2 4.3
2018-Jul-12 08:30N 30°04' W 093°33'1 2.6
2018-Jul-12 08:00N 30°04' W 093°32'0 0.8
2018-Jul-12 07:30N 30°04' W 093°31'2 3.7
2018-Jul-12 06:59N 30°04' W 093°29'2 3.6
2018-Jul-12 06:30N 30°04' W 093°27'2 3.5
2018-Jul-12 06:00N 30°04' W 093°25'2 3.4
2018-Jul-12 05:30N 30°04' W 093°23'1 2.4
2018-Jul-12 05:00N 30°04' W 093°22'1 1.7
2018-Jul-12 04:30N 30°04' W 093°21'1 2.9
2018-Jul-12 04:00N 30°05' W 093°20'2 3.0
2018-Jul-12 03:30N 30°06' W 093°18'1 2.2
2018-Jul-12 03:00N 30°05' W 093°17'1 2.5
2018-Jul-12 02:30N 30°04' W 093°16'0 0.0
2018-Jul-12 02:00N 30°04' W 093°16'0 0.0
2018-Jul-12 01:30N 30°04' W 093°16'0 0.1
2018-Jul-12 01:00N 30°04' W 093°16'0 0.3
2018-Jul-12 00:30N 30°04' W 093°16'0 0.7
2018-Jul-12 00:00N 30°04' W 093°16'1 2.5
2018-Jul-11 23:30N 30°02' W 093°16'1 1.4
2018-Jul-11 22:58N 30°02' W 093°15'0 0.0
2018-Jul-11 22:30N 30°02' W 093°15'0 0.0
2018-Jul-11 22:00N 30°02' W 093°15'0 0.0
2018-Jul-11 21:30N 30°02' W 093°15'0 0.0
2018-Jul-11 21:00N 30°02' W 093°15'0 0.0
2018-Jul-11 20:30N 30°02' W 093°15'0 0.0
2018-Jul-11 20:00N 30°02' W 093°15'0 0.0
2018-Jul-11 19:30N 30°02' W 093°15'0 0.0
2018-Jul-11 19:00N 30°02' W 093°15'0 0.0
2018-Jul-11 18:30N 30°02' W 093°15'0 0.0
2018-Jul-11 18:00N 30°02' W 093°15'0 0.0
2018-Jul-11 17:30N 30°02' W 093°15'0 0.0
2018-Jul-11 17:00N 30°02' W 093°15'0 0.0
2018-Jul-11 16:30N 30°02' W 093°15'0 0.0
2018-Jul-11 16:00N 30°02' W 093°15'0 0.0
2018-Jul-11 15:30N 30°02' W 093°15'0 0.1
2018-Jul-11 15:00N 30°02' W 093°15'1 2.7
2018-Jul-11 14:30N 30°01' W 093°14'1 2.4
2018-Jul-11 14:00N 29°60' W 093°13'0 0.0
2018-Jul-11 13:30N 29°60' W 093°13'0 0.0
2018-Jul-11 13:00N 29°60' W 093°13'0 0.0
2018-Jul-11 12:30N 29°60' W 093°13'0 0.0
2018-Jul-11 12:00N 29°60' W 093°13'0 0.0
2018-Jul-11 11:30N 29°60' W 093°13'0 0.0
2018-Jul-11 11:00N 29°60' W 093°13'0 0.0
2018-Jul-11 10:30N 29°60' W 093°13'0 0.0
2018-Jul-11 10:00N 29°60' W 093°13'0 0.0
2018-Jul-11 09:30N 29°60' W 093°13'0 0.0
2018-Jul-11 09:00N 29°60' W 093°13'0 0.0
2018-Jul-11 08:30N 29°60' W 093°13'0 0.0
2018-Jul-11 08:00N 29°60' W 093°13'0 0.0
2018-Jul-11 07:30N 29°60' W 093°13'0 0.0
2018-Jul-11 07:00N 29°60' W 093°13'0 0.0
2018-Jul-11 06:30N 29°60' W 093°13'0 0.0
2018-Jul-11 06:00N 29°60' W 093°13'0 0.0
2018-Jul-11 05:30N 29°60' W 093°13'2 3.2
2018-Jul-11 05:00N 29°59' W 093°12'1 1.7
2018-Jul-11 04:30N 29°58' W 093°11'0 0.1
2018-Jul-11 04:00N 29°58' W 093°11'0 0.0
2018-Jul-11 03:30N 29°58' W 093°11'0 0.0
2018-Jul-11 03:00N 29°58' W 093°11'0 0.0
2018-Jul-11 02:30N 29°58' W 093°11'0 0.0
2018-Jul-11 02:00N 29°58' W 093°11'0 0.0
2018-Jul-11 01:30N 29°58' W 093°11'0 0.0
2018-Jul-11 01:00N 29°58' W 093°11'0 0.0
2018-Jul-11 00:30N 29°58' W 093°11'0 0.0
2018-Jul-11 00:00N 29°58' W 093°11'0 0.0
2018-Jul-10 23:30N 29°58' W 093°11'0 0.0
2018-Jul-10 23:00N 29°58' W 093°11'0 0.0
2018-Jul-10 22:30N 29°58' W 093°11'0 0.0
2018-Jul-10 22:00N 29°58' W 093°11'0 0.0
2018-Jul-10 21:30N 29°58' W 093°11'0 0.0
2018-Jul-10 21:00N 29°58' W 093°11'0 0.0
2018-Jul-10 20:30N 29°58' W 093°11'0 0.0
2018-Jul-10 20:00N 29°58' W 093°11'0 0.0
2018-Jul-10 19:30N 29°58' W 093°11'0 0.0
2018-Jul-10 19:00N 29°58' W 093°11'0 0.0
2018-Jul-10 18:30N 29°58' W 093°11'0 0.0
2018-Jul-10 18:00N 29°58' W 093°11'0 0.0
2018-Jul-10 17:30N 29°58' W 093°11'0 0.0
2018-Jul-10 17:00N 29°58' W 093°11'0 0.0
2018-Jul-10 16:30N 29°58' W 093°11'0 0.0
2018-Jul-10 16:00N 29°58' W 093°11'0 0.0
2018-Jul-10 15:30N 29°58' W 093°11'0 0.0
2018-Jul-10 15:00N 29°58' W 093°11'0 0.0
2018-Jul-10 14:30N 29°58' W 093°11'0 0.0
2018-Jul-10 14:00N 29°58' W 093°11'0 0.0
2018-Jul-10 13:30N 29°58' W 093°11'0 0.0
2018-Jul-10 13:00N 29°58' W 093°11'0 0.0
2018-Jul-10 12:30N 29°58' W 093°11'0 0.0
2018-Jul-10 12:00N 29°58' W 093°11'1 1.3
2018-Jul-10 11:30N 29°57' W 093°11'0 0.2
2018-Jul-10 11:00N 29°57' W 093°11'1 1.4
2018-Jul-10 10:30N 29°57' W 093°10'3 4.1
2018-Jul-10 09:50N 29°56' W 093°07'  

Dump ship's entire track history